sensor_id;sensor_type;location;lat;lon;timestamp;pressure;altitude;pressure_sealevel;temperature;humidity
8573;BME280;4324;42.012;24.872;2023-08-07T00:00:34;98113.63;;;24.79;46.84
8573;BME280;4324;42.012;24.872;2023-08-07T00:03:01;98104.50;;;24.70;47.35
8573;BME280;4324;42.012;24.872;2023-08-07T00:05:28;98101.59;;;24.56;47.47
8573;BME280;4324;42.012;24.872;2023-08-07T00:07:57;98110.28;;;24.48;48.11
8573;BME280;4324;42.012;24.872;2023-08-07T00:10:24;98089.47;;;24.38;48.19
8573;BME280;4324;42.012;24.872;2023-08-07T00:12:51;98093.81;;;24.34;48.32
8573;BME280;4324;42.012;24.872;2023-08-07T00:15:18;98114.91;;;24.37;48.77
8573;BME280;4324;42.012;24.872;2023-08-07T00:17:45;98101.97;;;24.24;48.84
8573;BME280;4324;42.012;24.872;2023-08-07T00:20:15;98096.03;;;24.17;48.69
8573;BME280;4324;42.012;24.872;2023-08-07T00:22:42;98089.06;;;24.05;49.08
8573;BME280;4324;42.012;24.872;2023-08-07T00:25:10;98074.50;;;23.91;49.22
8573;BME280;4324;42.012;24.872;2023-08-07T00:27:37;98105.81;;;24.02;49.09
8573;BME280;4324;42.012;24.872;2023-08-07T00:30:05;98088.03;;;23.86;49.34
8573;BME280;4324;42.012;24.872;2023-08-07T00:32:33;98096.38;;;23.95;49.43
8573;BME280;4324;42.012;24.872;2023-08-07T00:35:00;98099.09;;;23.95;49.58
8573;BME280;4324;42.012;24.872;2023-08-07T00:37:27;98085.06;;;23.87;49.74
8573;BME280;4324;42.012;24.872;2023-08-07T00:39:54;98084.78;;;23.89;49.78
8573;BME280;4324;42.012;24.872;2023-08-07T00:42:22;98108.53;;;24.07;49.93
8573;BME280;4324;42.012;24.872;2023-08-07T00:44:49;98107.69;;;24.12;50.13
8573;BME280;4324;42.012;24.872;2023-08-07T00:47:16;98082.59;;;24.01;50.47
8573;BME280;4324;42.012;24.872;2023-08-07T00:49:43;98076.66;;;23.99;50.96
8573;BME280;4324;42.012;24.872;2023-08-07T00:52:10;98107.97;;;24.15;51.62
8573;BME280;4324;42.012;24.872;2023-08-07T00:54:37;98118.75;;;24.21;51.94
8573;BME280;4324;42.012;24.872;2023-08-07T00:57:09;98106.09;;;24.11;52.49
8573;BME280;4324;42.012;24.872;2023-08-07T00:59:39;98114.19;;;24.06;52.64
8573;BME280;4324;42.012;24.872;2023-08-07T01:02:07;98132.59;;;24.09;53.23
8573;BME280;4324;42.012;24.872;2023-08-07T01:04:34;98128.00;;;24.04;53.73
8573;BME280;4324;42.012;24.872;2023-08-07T01:07:01;98122.59;;;24.04;53.88
8573;BME280;4324;42.012;24.872;2023-08-07T01:09:28;98126.41;;;24.03;53.84
8573;BME280;4324;42.012;24.872;2023-08-07T01:11:59;98028.94;;;23.43;54.31
8573;BME280;4324;42.012;24.872;2023-08-07T01:14:32;98121.28;;;23.97;54.16
8573;BME280;4324;42.012;24.872;2023-08-07T01:17:09;98128.56;;;24.01;54.57
8573;BME280;4324;42.012;24.872;2023-08-07T01:19:36;98131.00;;;23.98;54.67
8573;BME280;4324;42.012;24.872;2023-08-07T01:22:06;98137.22;;;23.93;55.07
8573;BME280;4324;42.012;24.872;2023-08-07T01:24:34;98131.84;;;23.83;54.91
8573;BME280;4324;42.012;24.872;2023-08-07T01:27:11;98146.97;;;23.89;54.76
8573;BME280;4324;42.012;24.872;2023-08-07T01:29:46;98156.16;;;23.88;54.44
8573;BME280;4324;42.012;24.872;2023-08-07T01:32:21;98165.06;;;23.83;54.23
8573;BME280;4324;42.012;24.872;2023-08-07T01:34:50;98142.91;;;23.76;53.90
8573;BME280;4324;42.012;24.872;2023-08-07T01:37:20;98147.25;;;23.72;53.93
8573;BME280;4324;42.012;24.872;2023-08-07T01:39:48;98158.88;;;23.73;53.93
8573;BME280;4324;42.012;24.872;2023-08-07T01:42:17;98165.38;;;23.66;54.22
8573;BME280;4324;42.012;24.872;2023-08-07T01:44:44;98172.63;;;23.61;53.99
8573;BME280;4324;42.012;24.872;2023-08-07T01:47:11;98179.41;;;23.58;54.05
8573;BME280;4324;42.012;24.872;2023-08-07T01:49:38;98175.06;;;23.57;54.27
8573;BME280;4324;42.012;24.872;2023-08-07T01:52:07;98164.81;;;23.44;53.96
8573;BME280;4324;42.012;24.872;2023-08-07T01:54:35;98175.34;;;23.35;54.46
8573;BME280;4324;42.012;24.872;2023-08-07T01:57:03;98176.16;;;23.26;54.32
8573;BME280;4324;42.012;24.872;2023-08-07T01:59:30;98175.63;;;23.29;54.74
8573;BME280;4324;42.012;24.872;2023-08-07T02:01:57;98170.19;;;23.18;54.79
8573;BME280;4324;42.012;24.872;2023-08-07T02:04:24;98166.41;;;23.19;55.00
8573;BME280;4324;42.012;24.872;2023-08-07T02:06:51;98181.00;;;23.24;55.06
8573;BME280;4324;42.012;24.872;2023-08-07T02:09:18;98179.91;;;23.14;55.50
8573;BME280;4324;42.012;24.872;2023-08-07T02:11:47;98186.91;;;23.00;55.65
8573;BME280;4324;42.012;24.872;2023-08-07T02:14:14;98188.25;;;22.92;55.93
8573;BME280;4324;42.012;24.872;2023-08-07T02:16:41;98183.06;;;22.81;56.20
8573;BME280;4324;42.012;24.872;2023-08-07T02:19:08;98159.50;;;22.61;55.98
8573;BME280;4324;42.012;24.872;2023-08-07T02:21:35;98178.94;;;22.68;56.27
8573;BME280;4324;42.012;24.872;2023-08-07T02:24:02;98201.66;;;22.77;56.19
8573;BME280;4324;42.012;24.872;2023-08-07T02:26:29;98207.03;;;22.72;56.60
8573;BME280;4324;42.012;24.872;2023-08-07T02:28:57;98213.22;;;22.67;56.83
8573;BME280;4324;42.012;24.872;2023-08-07T02:31:24;98213.16;;;22.57;57.30
8573;BME280;4324;42.012;24.872;2023-08-07T02:33:51;98215.56;;;22.49;57.56
8573;BME280;4324;42.012;24.872;2023-08-07T02:36:18;98216.59;;;22.37;57.66
8573;BME280;4324;42.012;24.872;2023-08-07T02:38:45;98211.44;;;22.36;57.22
8573;BME280;4324;42.012;24.872;2023-08-07T02:41:12;98218.25;;;22.43;57.27
8573;BME280;4324;42.012;24.872;2023-08-07T02:43:39;98201.50;;;22.41;57.27
8573;BME280;4324;42.012;24.872;2023-08-07T02:46:07;98219.13;;;22.59;57.17
8573;BME280;4324;42.012;24.872;2023-08-07T02:48:34;98222.41;;;22.66;57.03
8573;BME280;4324;42.012;24.872;2023-08-07T02:51:01;98217.00;;;22.71;57.41
8573;BME280;4324;42.012;24.872;2023-08-07T02:53:28;98223.25;;;22.77;57.39
8573;BME280;4324;42.012;24.872;2023-08-07T02:55:55;98224.06;;;22.78;57.61
8573;BME280;4324;42.012;24.872;2023-08-07T02:58:22;98220.25;;;22.74;58.12
8573;BME280;4324;42.012;24.872;2023-08-07T03:00:49;98213.72;;;22.64;58.30
8573;BME280;4324;42.012;24.872;2023-08-07T03:03:17;98206.38;;;22.50;58.70
8573;BME280;4324;42.012;24.872;2023-08-07T03:05:48;98226.63;;;22.52;59.30
8573;BME280;4324;42.012;24.872;2023-08-07T03:08:15;98228.78;;;22.50;59.56
8573;BME280;4324;42.012;24.872;2023-08-07T03:10:42;98228.25;;;22.53;60.29
8573;BME280;4324;42.012;24.872;2023-08-07T03:13:15;98233.69;;;22.58;60.14
8573;BME280;4324;42.012;24.872;2023-08-07T03:15:42;98231.25;;;22.62;59.86
8573;BME280;4324;42.012;24.872;2023-08-07T03:18:09;98231.53;;;22.60;60.51
8573;BME280;4324;42.012;24.872;2023-08-07T03:20:38;98233.41;;;22.55;60.64
8573;BME280;4324;42.012;24.872;2023-08-07T03:23:05;98215.28;;;22.45;60.48
8573;BME280;4324;42.012;24.872;2023-08-07T03:25:32;98237.44;;;22.57;60.51
8573;BME280;4324;42.012;24.872;2023-08-07T03:27:59;98245.00;;;22.55;60.81
8573;BME280;4324;42.012;24.872;2023-08-07T03:30:26;98243.88;;;22.46;60.99
8573;BME280;4324;42.012;24.872;2023-08-07T03:32:53;98252.81;;;22.52;61.18
8573;BME280;4324;42.012;24.872;2023-08-07T03:35:19;98253.56;;;22.47;61.14
8573;BME280;4324;42.012;24.872;2023-08-07T03:37:48;98252.53;;;22.48;61.10
8573;BME280;4324;42.012;24.872;2023-08-07T03:40:15;98261.97;;;22.51;60.93
8573;BME280;4324;42.012;24.872;2023-08-07T03:42:42;98259.81;;;22.53;60.46
8573;BME280;4324;42.012;24.872;2023-08-07T03:45:09;98249.84;;;22.53;60.62
8573;BME280;4324;42.012;24.872;2023-08-07T03:47:36;98255.28;;;22.63;60.25
8573;BME280;4324;42.012;24.872;2023-08-07T03:50:04;98259.91;;;22.68;59.86
8573;BME280;4324;42.012;24.872;2023-08-07T03:52:31;98273.16;;;22.80;59.78
8573;BME280;4324;42.012;24.872;2023-08-07T03:54:59;98254.78;;;22.77;59.69
8573;BME280;4324;42.012;24.872;2023-08-07T03:57:26;98267.53;;;22.86;59.96
8573;BME280;4324;42.012;24.872;2023-08-07T03:59:53;98270.28;;;22.91;59.91
8573;BME280;4324;42.012;24.872;2023-08-07T04:02:20;98273.81;;;22.92;60.12
8573;BME280;4324;42.012;24.872;2023-08-07T04:04:47;98272.13;;;22.91;60.57
8573;BME280;4324;42.012;24.872;2023-08-07T04:07:14;98284.81;;;22.90;60.42
8573;BME280;4324;42.012;24.872;2023-08-07T04:09:41;98253.22;;;22.86;60.24
8573;BME280;4324;42.012;24.872;2023-08-07T04:12:09;98271.69;;;22.99;60.35
8573;BME280;4324;42.012;24.872;2023-08-07T04:14:36;98271.97;;;23.08;60.20
8573;BME280;4324;42.012;24.872;2023-08-07T04:17:03;98253.88;;;23.03;59.53
8573;BME280;4324;42.012;24.872;2023-08-07T04:19:30;98278.50;;;23.22;58.89
8573;BME280;4324;42.012;24.872;2023-08-07T04:21:57;98291.75;;;23.34;58.87
8573;BME280;4324;42.012;24.872;2023-08-07T04:24:24;98286.91;;;23.41;58.17
8573;BME280;4324;42.012;24.872;2023-08-07T04:26:51;98272.06;;;23.49;57.13
8573;BME280;4324;42.012;24.872;2023-08-07T04:29:20;98288.03;;;23.55;57.42
8573;BME280;4324;42.012;24.872;2023-08-07T04:31:47;98296.66;;;23.57;57.40
8573;BME280;4324;42.012;24.872;2023-08-07T04:34:14;98300.47;;;23.56;57.67
8573;BME280;4324;42.012;24.872;2023-08-07T04:36:41;98287.19;;;23.50;57.79
8573;BME280;4324;42.012;24.872;2023-08-07T04:39:08;98284.78;;;23.53;57.00
8573;BME280;4324;42.012;24.872;2023-08-07T04:41:35;98304.81;;;23.62;56.58
8573;BME280;4324;42.012;24.872;2023-08-07T04:44:02;98299.44;;;23.67;56.92
8573;BME280;4324;42.012;24.872;2023-08-07T04:46:30;98284.81;;;23.69;56.64
8573;BME280;4324;42.012;24.872;2023-08-07T04:48:59;98290.25;;;23.74;56.33
8573;BME280;4324;42.012;24.872;2023-08-07T04:51:26;98294.03;;;23.83;55.72
8573;BME280;4324;42.012;24.872;2023-08-07T04:53:54;98250.75;;;23.62;54.48
8573;BME280;4324;42.012;24.872;2023-08-07T04:56:22;98295.41;;;24.01;50.98
8573;BME280;4324;42.012;24.872;2023-08-07T04:58:49;98299.97;;;24.05;50.46
8573;BME280;4324;42.012;24.872;2023-08-07T05:01:16;98283.78;;;24.00;51.10
8573;BME280;4324;42.012;24.872;2023-08-07T05:03:45;98292.97;;;24.14;50.20
8573;BME280;4324;42.012;24.872;2023-08-07T05:06:12;98297.81;;;24.23;50.69
8573;BME280;4324;42.012;24.872;2023-08-07T05:08:38;98308.63;;;24.23;51.52
8573;BME280;4324;42.012;24.872;2023-08-07T05:11:05;98285.13;;;24.08;51.87
8573;BME280;4324;42.012;24.872;2023-08-07T05:13:32;98306.47;;;24.25;52.04
8573;BME280;4324;42.012;24.872;2023-08-07T05:15:59;98307.03;;;24.22;52.27
8573;BME280;4324;42.012;24.872;2023-08-07T05:18:26;98288.06;;;24.06;52.78
8573;BME280;4324;42.012;24.872;2023-08-07T05:20:54;98310.53;;;24.22;52.79
8573;BME280;4324;42.012;24.872;2023-08-07T05:23:21;98312.97;;;24.08;53.16
8573;BME280;4324;42.012;24.872;2023-08-07T05:25:48;98310.53;;;24.07;53.18
8573;BME280;4324;42.012;24.872;2023-08-07T05:28:15;98319.19;;;24.04;53.19
8573;BME280;4324;42.012;24.872;2023-08-07T05:30:42;98339.47;;;24.11;53.44
8573;BME280;4324;42.012;24.872;2023-08-07T05:33:09;98330.00;;;24.09;53.58
8573;BME280;4324;42.012;24.872;2023-08-07T05:35:37;98322.97;;;24.03;53.93
8573;BME280;4324;42.012;24.872;2023-08-07T05:38:06;98337.31;;;24.03;53.89
8573;BME280;4324;42.012;24.872;2023-08-07T05:40:33;98333.25;;;24.01;54.12
8573;BME280;4324;42.012;24.872;2023-08-07T05:43:02;98331.34;;;24.06;53.69
8573;BME280;4324;42.012;24.872;2023-08-07T05:45:28;98336.22;;;24.04;53.87
8573;BME280;4324;42.012;24.872;2023-08-07T05:47:55;98335.69;;;24.02;53.85
8573;BME280;4324;42.012;24.872;2023-08-07T05:50:22;98318.66;;;23.97;54.54
8573;BME280;4324;42.012;24.872;2023-08-07T05:52:49;98334.34;;;24.05;54.13
8573;BME280;4324;42.012;24.872;2023-08-07T05:55:17;98316.75;;;23.97;54.44
8573;BME280;4324;42.012;24.872;2023-08-07T05:57:44;98334.06;;;24.06;54.65
8573;BME280;4324;42.012;24.872;2023-08-07T06:00:11;98335.69;;;24.12;54.11
8573;BME280;4324;42.012;24.872;2023-08-07T06:02:42;98330.25;;;24.18;54.23
8573;BME280;4324;42.012;24.872;2023-08-07T06:05:08;98337.84;;;24.21;54.36
8573;BME280;4324;42.012;24.872;2023-08-07T06:07:37;98337.84;;;24.21;54.10
8573;BME280;4324;42.012;24.872;2023-08-07T06:10:05;98334.63;;;24.19;54.19
8573;BME280;4324;42.012;24.872;2023-08-07T06:12:34;98335.66;;;24.18;54.46
8573;BME280;4324;42.012;24.872;2023-08-07T06:15:00;98330.00;;;24.24;54.17
8573;BME280;4324;42.012;24.872;2023-08-07T06:17:27;98327.03;;;24.26;54.57
8573;BME280;4324;42.012;24.872;2023-08-07T06:19:54;98327.84;;;24.31;54.49
8573;BME280;4324;42.012;24.872;2023-08-07T06:22:21;98319.47;;;24.23;54.39
8573;BME280;4324;42.012;24.872;2023-08-07T06:24:48;98333.50;;;24.35;54.58
8573;BME280;4324;42.012;24.872;2023-08-07T06:27:15;98331.91;;;24.34;54.42
8573;BME280;4324;42.012;24.872;2023-08-07T06:29:43;98326.50;;;24.34;54.31
8573;BME280;4324;42.012;24.872;2023-08-07T06:32:10;98324.84;;;24.28;54.70
8573;BME280;4324;42.012;24.872;2023-08-07T06:34:37;98321.34;;;24.37;54.48
8573;BME280;4324;42.012;24.872;2023-08-07T06:37:05;98328.66;;;24.52;53.96
8573;BME280;4324;42.012;24.872;2023-08-07T06:39:32;98317.81;;;24.62;53.86
8573;BME280;4324;42.012;24.872;2023-08-07T06:41:59;98317.25;;;24.66;53.79
8573;BME280;4324;42.012;24.872;2023-08-07T06:44:26;98304.25;;;24.68;53.64
8573;BME280;4324;42.012;24.872;2023-08-07T06:46:54;98309.13;;;24.81;53.34
8573;BME280;4324;42.012;24.872;2023-08-07T06:49:21;98317.72;;;24.93;52.92
8573;BME280;4324;42.012;24.872;2023-08-07T06:51:49;98317.69;;;25.03;52.57
8573;BME280;4324;42.012;24.872;2023-08-07T06:54:16;98329.59;;;25.02;52.82
8573;BME280;4324;42.012;24.872;2023-08-07T06:56:45;98319.56;;;25.18;52.29
8573;BME280;4324;42.012;24.872;2023-08-07T06:59:12;98345.50;;;25.34;51.72
8573;BME280;4324;42.012;24.872;2023-08-07T07:01:39;98315.97;;;25.28;51.86
8573;BME280;4324;42.012;24.872;2023-08-07T07:04:07;98341.63;;;25.46;51.35
8573;BME280;4324;42.012;24.872;2023-08-07T07:06:37;98321.81;;;25.50;51.02
8573;BME280;4324;42.012;24.872;2023-08-07T07:09:05;98273.22;;;25.09;51.17
8573;BME280;4324;42.012;24.872;2023-08-07T07:11:31;98336.47;;;25.49;50.77
8573;BME280;4324;42.012;24.872;2023-08-07T07:14:00;98329.94;;;25.50;50.79
8573;BME280;4324;42.012;24.872;2023-08-07T07:16:27;98336.97;;;25.56;50.81
8573;BME280;4324;42.012;24.872;2023-08-07T07:18:54;98345.31;;;25.65;50.80
8573;BME280;4324;42.012;24.872;2023-08-07T07:21:23;98335.78;;;25.73;50.46
8573;BME280;4324;42.012;24.872;2023-08-07T07:23:49;98335.75;;;25.83;49.91
8573;BME280;4324;42.012;24.872;2023-08-07T07:26:16;98334.28;;;26.01;49.47
8573;BME280;4324;42.012;24.872;2023-08-07T07:28:43;98343.94;;;26.12;49.21
8573;BME280;4324;42.012;24.872;2023-08-07T07:31:10;98333.09;;;26.12;48.96
8573;BME280;4324;42.012;24.872;2023-08-07T07:33:37;98328.47;;;26.13;49.03
8573;BME280;4324;42.012;24.872;2023-08-07T07:36:04;98352.13;;;26.41;48.53
8573;BME280;4324;42.012;24.872;2023-08-07T07:38:33;98357.25;;;26.48;47.80
8573;BME280;4324;42.012;24.872;2023-08-07T07:41:00;98359.13;;;26.47;47.35
8573;BME280;4324;42.012;24.872;2023-08-07T07:43:27;98359.97;;;26.43;46.84
8573;BME280;4324;42.012;24.872;2023-08-07T07:45:55;98351.63;;;26.34;46.38
8573;BME280;4324;42.012;24.872;2023-08-07T07:48:22;98357.56;;;26.41;46.26
8573;BME280;4324;42.012;24.872;2023-08-07T07:50:48;98345.09;;;26.40;45.56
8573;BME280;4324;42.012;24.872;2023-08-07T07:53:15;98347.13;;;26.53;45.56
8573;BME280;4324;42.012;24.872;2023-08-07T07:55:48;98339.06;;;26.48;45.61
8573;BME280;4324;42.012;24.872;2023-08-07T07:58:14;98350.97;;;26.52;44.94
8573;BME280;4324;42.012;24.872;2023-08-07T08:00:42;98347.63;;;26.61;44.86
8573;BME280;4324;42.012;24.872;2023-08-07T08:03:09;98348.25;;;26.52;44.20
8573;BME280;4324;42.012;24.872;2023-08-07T08:05:35;98346.34;;;26.53;44.11
8573;BME280;4324;42.012;24.872;2023-08-07T08:08:03;98351.78;;;26.53;44.20
8573;BME280;4324;42.012;24.872;2023-08-07T08:10:30;98357.94;;;26.59;44.05
8573;BME280;4324;42.012;24.872;2023-08-07T08:12:58;98336.28;;;26.53;44.04
8573;BME280;4324;42.012;24.872;2023-08-07T08:15:25;98327.00;;;26.60;43.99
8573;BME280;4324;42.012;24.872;2023-08-07T08:17:52;98350.72;;;26.78;44.13
8573;BME280;4324;42.012;24.872;2023-08-07T08:20:19;98352.00;;;26.86;43.95
8573;BME280;4324;42.012;24.872;2023-08-07T08:22:46;98352.00;;;26.86;43.72
8573;BME280;4324;42.012;24.872;2023-08-07T08:25:13;98329.19;;;26.58;43.85
8573;BME280;4324;42.012;24.872;2023-08-07T08:27:43;98337.41;;;26.76;44.05
8573;BME280;4324;42.012;24.872;2023-08-07T08:30:12;98333.22;;;26.89;44.20
8573;BME280;4324;42.012;24.872;2023-08-07T08:32:39;98322.19;;;26.99;44.19
8573;BME280;4324;42.012;24.872;2023-08-07T08:35:07;98323.53;;;27.02;43.85
8573;BME280;4324;42.012;24.872;2023-08-07T08:37:34;98318.41;;;27.00;44.12
8573;BME280;4324;42.012;24.872;2023-08-07T08:40:01;98327.00;;;27.08;43.70
8573;BME280;4324;42.012;24.872;2023-08-07T08:42:28;98318.34;;;27.06;43.71
8573;BME280;4324;42.012;24.872;2023-08-07T08:44:56;98338.22;;;27.25;43.59
8573;BME280;4324;42.012;24.872;2023-08-07T08:47:26;98313.72;;;27.30;43.24
8573;BME280;4324;42.012;24.872;2023-08-07T08:49:56;98324.50;;;27.35;42.81
8573;BME280;4324;42.012;24.872;2023-08-07T08:52:26;98268.31;;;27.12;42.85
8573;BME280;4324;42.012;24.872;2023-08-07T08:54:55;98316.22;;;27.45;42.35
8573;BME280;4324;42.012;24.872;2023-08-07T08:57:23;98310.44;;;27.52;42.36
8573;BME280;4324;42.012;24.872;2023-08-07T08:59:51;98321.97;;;27.63;42.49
8573;BME280;4324;42.012;24.872;2023-08-07T09:02:18;98299.09;;;27.64;42.42
8573;BME280;4324;42.012;24.872;2023-08-07T09:04:46;98302.84;;;27.68;42.59
8573;BME280;4324;42.012;24.872;2023-08-07T09:07:15;98314.50;;;27.92;42.65
8573;BME280;4324;42.012;24.872;2023-08-07T09:09:42;98310.56;;;27.98;42.06
8573;BME280;4324;42.012;24.872;2023-08-07T09:12:16;98309.00;;;28.11;41.70
8573;BME280;4324;42.012;24.872;2023-08-07T09:14:44;98304.84;;;28.14;41.27
8573;BME280;4324;42.012;24.872;2023-08-07T09:17:12;98301.25;;;28.18;41.17
8573;BME280;4324;42.012;24.872;2023-08-07T09:19:40;98292.19;;;28.23;41.09
8573;BME280;4324;42.012;24.872;2023-08-07T09:22:08;98276.34;;;28.25;41.24
8573;BME280;4324;42.012;24.872;2023-08-07T09:24:35;98284.59;;;28.39;40.33
8573;BME280;4324;42.012;24.872;2023-08-07T09:27:02;98290.25;;;28.42;39.91
8573;BME280;4324;42.012;24.872;2023-08-07T09:29:31;98285.25;;;28.63;40.23
8573;BME280;4324;42.012;24.872;2023-08-07T09:32:06;98295.31;;;28.77;39.61
8573;BME280;4324;42.012;24.872;2023-08-07T09:34:33;98300.38;;;28.83;39.05
8573;BME280;4324;42.012;24.872;2023-08-07T09:37:01;98299.16;;;28.89;38.58
8573;BME280;4324;42.012;24.872;2023-08-07T09:39:29;98288.25;;;28.89;38.62
8573;BME280;4324;42.012;24.872;2023-08-07T09:41:56;98287.97;;;29.05;38.73
8573;BME280;4324;42.012;24.872;2023-08-07T09:44:23;98287.66;;;29.20;39.20
8573;BME280;4324;42.012;24.872;2023-08-07T09:46:50;98285.59;;;29.39;39.16
8573;BME280;4324;42.012;24.872;2023-08-07T09:49:18;98280.03;;;29.45;38.56
8573;BME280;4324;42.012;24.872;2023-08-07T09:51:47;98284.84;;;29.48;37.90
8573;BME280;4324;42.012;24.872;2023-08-07T09:54:16;98266.88;;;29.47;37.53
8573;BME280;4324;42.012;24.872;2023-08-07T09:56:46;98265.47;;;29.49;37.16
8573;BME280;4324;42.012;24.872;2023-08-07T09:59:13;98245.00;;;29.38;37.40
8573;BME280;4324;42.012;24.872;2023-08-07T10:01:41;98264.53;;;29.54;37.52
8573;BME280;4324;42.012;24.872;2023-08-07T10:04:10;98270.59;;;29.64;37.09
8573;BME280;4324;42.012;24.872;2023-08-07T10:06:41;98271.28;;;29.70;36.89
8573;BME280;4324;42.012;24.872;2023-08-07T10:09:08;98271.91;;;29.67;36.66
8573;BME280;4324;42.012;24.872;2023-08-07T10:11:38;98273.38;;;29.73;36.39
8573;BME280;4324;42.012;24.872;2023-08-07T10:14:10;98273.56;;;29.77;36.09
8573;BME280;4324;42.012;24.872;2023-08-07T10:16:38;98269.94;;;29.81;35.62
8573;BME280;4324;42.012;24.872;2023-08-07T10:19:07;98261.63;;;29.86;35.75
8573;BME280;4324;42.012;24.872;2023-08-07T10:21:36;98247.22;;;29.95;35.67
8573;BME280;4324;42.012;24.872;2023-08-07T10:24:04;98249.72;;;30.13;35.57
8573;BME280;4324;42.012;24.872;2023-08-07T10:26:33;98248.44;;;30.33;35.13
8573;BME280;4324;42.012;24.872;2023-08-07T10:29:02;98247.31;;;30.34;35.41
8573;BME280;4324;42.012;24.872;2023-08-07T10:31:32;98241.34;;;30.32;35.08
8573;BME280;4324;42.012;24.872;2023-08-07T10:34:00;98243.31;;;30.41;34.88
8573;BME280;4324;42.012;24.872;2023-08-07T10:36:32;98241.69;;;30.40;34.75
8573;BME280;4324;42.012;24.872;2023-08-07T10:39:06;98235.88;;;30.32;34.57
8573;BME280;4324;42.012;24.872;2023-08-07T10:41:38;98228.31;;;30.29;34.92
8573;BME280;4324;42.012;24.872;2023-08-07T10:44:16;98234.63;;;30.38;34.84
8573;BME280;4324;42.012;24.872;2023-08-07T10:46:49;98229.25;;;30.56;34.57
8573;BME280;4324;42.012;24.872;2023-08-07T10:49:36;98226.06;;;30.71;34.89
8573;BME280;4324;42.012;24.872;2023-08-07T10:52:13;98227.44;;;30.91;34.63
8573;BME280;4324;42.012;24.872;2023-08-07T10:54:46;98227.16;;;31.10;34.61
8573;BME280;4324;42.012;24.872;2023-08-07T10:57:14;98222.34;;;31.24;34.41
8573;BME280;4324;42.012;24.872;2023-08-07T10:59:49;98215.44;;;31.36;34.32
8573;BME280;4324;42.012;24.872;2023-08-07T11:02:24;98206.13;;;31.37;34.11
8573;BME280;4324;42.012;24.872;2023-08-07T11:04:52;98226.06;;;31.63;33.92
8573;BME280;4324;42.012;24.872;2023-08-07T11:07:24;98213.31;;;31.85;34.03
8573;BME280;4324;42.012;24.872;2023-08-07T11:09:51;98213.78;;;32.04;33.45
8573;BME280;4324;42.012;24.872;2023-08-07T11:12:19;98192.34;;;32.06;33.41
8573;BME280;4324;42.012;24.872;2023-08-07T11:14:46;98206.84;;;32.15;33.38
8573;BME280;4324;42.012;24.872;2023-08-07T11:17:13;98197.47;;;32.16;33.40
8573;BME280;4324;42.012;24.872;2023-08-07T11:19:41;98193.91;;;32.24;33.19
8573;BME280;4324;42.012;24.872;2023-08-07T11:22:08;98200.03;;;32.21;33.02
8573;BME280;4324;42.012;24.872;2023-08-07T11:24:35;98181.41;;;32.06;32.98
8573;BME280;4324;42.012;24.872;2023-08-07T11:27:03;98184.31;;;32.01;32.52
8573;BME280;4324;42.012;24.872;2023-08-07T11:29:30;98193.50;;;32.05;32.88
8573;BME280;4324;42.012;24.872;2023-08-07T11:31:56;98195.38;;;32.13;32.70
8573;BME280;4324;42.012;24.872;2023-08-07T11:34:23;98186.88;;;32.06;32.46
8573;BME280;4324;42.012;24.872;2023-08-07T11:36:52;98181.41;;;32.06;32.75
8573;BME280;4324;42.012;24.872;2023-08-07T11:39:20;98179.09;;;32.17;32.42
8573;BME280;4324;42.012;24.872;2023-08-07T11:41:50;98176.31;;;32.25;32.41
8573;BME280;4324;42.012;24.872;2023-08-07T11:44:17;98176.16;;;32.31;32.11
8573;BME280;4324;42.012;24.872;2023-08-07T11:46:44;98168.69;;;32.40;32.07
8573;BME280;4324;42.012;24.872;2023-08-07T11:49:12;98169.28;;;32.54;31.97
8573;BME280;4324;42.012;24.872;2023-08-07T11:51:39;98178.66;;;32.53;31.94
8573;BME280;4324;42.012;24.872;2023-08-07T11:54:13;98182.41;;;32.48;31.86
8573;BME280;4324;42.012;24.872;2023-08-07T11:56:41;98173.69;;;32.46;31.75
8573;BME280;4324;42.012;24.872;2023-08-07T11:59:08;98159.19;;;32.46;31.71
8573;BME280;4324;42.012;24.872;2023-08-07T12:01:37;98168.63;;;32.57;31.99
8573;BME280;4324;42.012;24.872;2023-08-07T12:04:09;98166.59;;;32.75;31.60
8573;BME280;4324;42.012;24.872;2023-08-07T12:06:36;98159.88;;;32.93;31.47
8573;BME280;4324;42.012;24.872;2023-08-07T12:09:05;98139.03;;;33.01;31.40
8573;BME280;4324;42.012;24.872;2023-08-07T12:11:35;98148.03;;;33.22;31.11
8573;BME280;4324;42.012;24.872;2023-08-07T12:14:02;98132.16;;;33.28;30.90
8573;BME280;4324;42.012;24.872;2023-08-07T12:16:32;98149.09;;;33.30;30.97
8573;BME280;4324;42.012;24.872;2023-08-07T12:18:59;98150.22;;;33.29;31.25
8573;BME280;4324;42.012;24.872;2023-08-07T12:21:27;98127.47;;;33.29;31.27
8573;BME280;4324;42.012;24.872;2023-08-07T12:23:55;98140.84;;;33.51;31.04
8573;BME280;4324;42.012;24.872;2023-08-07T12:26:23;98138.09;;;33.51;30.53
8573;BME280;4324;42.012;24.872;2023-08-07T12:28:52;98138.03;;;33.39;30.70
8573;BME280;4324;42.012;24.872;2023-08-07T12:31:18;98132.44;;;33.35;31.00
8573;BME280;4324;42.012;24.872;2023-08-07T12:33:45;98139.38;;;33.33;30.99
8573;BME280;4324;42.012;24.872;2023-08-07T12:36:12;98130.03;;;33.34;30.78
8573;BME280;4324;42.012;24.872;2023-08-07T12:38:40;98134.69;;;33.33;31.02
8573;BME280;4324;42.012;24.872;2023-08-07T12:41:07;98124.22;;;33.14;30.77
8573;BME280;4324;42.012;24.872;2023-08-07T12:43:34;98138.81;;;33.06;30.77
8573;BME280;4324;42.012;24.872;2023-08-07T12:46:02;98130.81;;;32.92;30.96
8573;BME280;4324;42.012;24.872;2023-08-07T12:48:29;98124.25;;;32.85;31.13
8573;BME280;4324;42.012;24.872;2023-08-07T12:50:56;98131.63;;;32.93;31.09
8573;BME280;4324;42.012;24.872;2023-08-07T12:53:23;98125.75;;;33.03;31.18
8573;BME280;4324;42.012;24.872;2023-08-07T12:55:49;98133.81;;;33.08;31.08
8573;BME280;4324;42.012;24.872;2023-08-07T12:58:16;98125.63;;;32.99;30.91
8573;BME280;4324;42.012;24.872;2023-08-07T13:00:45;98126.13;;;32.93;31.08
8573;BME280;4324;42.012;24.872;2023-08-07T13:03:13;98094.06;;;32.93;31.10
8573;BME280;4324;42.012;24.872;2023-08-07T13:05:40;98104.25;;;33.26;30.96
8573;BME280;4324;42.012;24.872;2023-08-07T13:08:07;98105.84;;;33.48;30.98
8573;BME280;4324;42.012;24.872;2023-08-07T13:10:34;98118.50;;;33.73;30.74
8573;BME280;4324;42.012;24.872;2023-08-07T13:13:01;98113.72;;;33.83;30.46